WetterOnline ( http://www.wetteronline.de )

Wetter aktuell Mannheim

Aktuelles Wetter: Mannheim (100m)

6-stündlich | Neueste Meldungen
Ortszeit Temperatur Wetter
Fr, 19.10. 8:00 8.5° C leicht bewölkt
Fr, 19.10. 2:00 11.6° C wolkenlos
Do, 18.10. 20:00 16.6° C wolkenlos
Do, 18.10. 14:00 21.6° C fast wolkenlos
Do, 18.10. 8:00 7.9° C wolkig
Do, 18.10. 2:00 12.0° C wolkig
Mi, 17.10. 20:00 15.7° C bedeckt
Mi, 17.10. 14:00 20.4° C leicht bewölkt
Ortszeit Temperatur Wetter
Fr, 19.10. 8:30 8.6° C fast wolkenlos
Fr, 19.10. 8:20 8.6° C fast wolkenlos
Fr, 19.10. 8:10 8.5° C leicht bewölkt
Fr, 19.10. 8:00 8.5° C leicht bewölkt
Fr, 19.10. 7:50 8.5° C leicht bewölkt
Fr, 19.10. 7:40 8.6° C fast wolkenlos
Fr, 19.10. 7:30 8.7° C wolkenlos
Fr, 19.10. 7:00 9.1° C wolkenlos
Fr, 19.10. 6:30 9.3° C wolkenlos
Fr, 19.10. 6:00 9.3° C wolkenlos
Fr, 19.10. 5:30 9.7° C wolkenlos
Ortszeit Relative Feuchte Sichtweite
Fr, 19.10. 8:00 95% 6 km
Fr, 19.10. 2:00 87% 6 km
Do, 18.10. 20:00 71% 9 km
Do, 18.10. 14:00 52% 17 km
Do, 18.10. 8:00 97% 4.8 km
Do, 18.10. 2:00 84% 13 km
Mi, 17.10. 20:00 71% 20 km
Mi, 17.10. 14:00 53% 7 km
Ortszeit Relative Feuchte Sichtweite
Fr, 19.10. 8:30 94% 6 km
Fr, 19.10. 8:20 94% -
Fr, 19.10. 8:10 95% -
Fr, 19.10. 8:00 95% 6 km
Fr, 19.10. 7:50 95% -
Fr, 19.10. 7:40 94% -
Fr, 19.10. 7:30 94% 6 km
Fr, 19.10. 7:00 93% 6 km
Fr, 19.10. 6:30 93% 5.0 km
Fr, 19.10. 6:00 94% 5.0 km
Fr, 19.10. 5:30 93% 5.0 km
Ortszeit Niederschlagsmenge Niederschlagsart
Fr, 19.10. 8:00 0.0 l/m2 in 12 Std. -
Fr, 19.10. 2:00 0.0 l/m2 in 6 Std. -
Do, 18.10. 20:00 0.0 l/m2 in 12 Std. -
Do, 18.10. 14:00 0.0 l/m2 in 6 Std. -
Do, 18.10. 8:00 0.0 l/m2 in 12 Std. -
Do, 18.10. 2:00 0.0 l/m2 in 6 Std. -
Mi, 17.10. 20:00 0.0 l/m2 in 12 Std. -
Mi, 17.10. 14:00 0.0 l/m2 in 6 Std. -
Ortszeit Niederschlagsmenge Niederschlagsart
Fr, 19.10. 8:30 0.0 l/m2 in 1 Std. -
Fr, 19.10. 8:20 keine Meldung -
Fr, 19.10. 8:10 keine Meldung -
Fr, 19.10. 8:00 0.0 l/m2 in 1 Std. -
Fr, 19.10. 7:50 keine Meldung -
Fr, 19.10. 7:40 keine Meldung -
Fr, 19.10. 7:30 0.0 l/m2 in 1 Std. -
Fr, 19.10. 7:00 0.0 l/m2 in 1 Std. -
Fr, 19.10. 6:30 0.0 l/m2 in 1 Std. -
Fr, 19.10. 6:00 0.0 l/m2 in 1 Std. -
Fr, 19.10. 5:30 0.0 l/m2 in 1 Std. -
Ortszeit Stärke Spitze Richtung
km/h Bft. km/h Grad Sektor
Fr, 19.10. 8:00 9 2 17 350° N
Fr, 19.10. 2:00 11 2 22 340° N
Do, 18.10. 20:00 13 3 41 360° N
Do, 18.10. 14:00 11 2 22 330° NW
Do, 18.10. 8:00 4 1 14 330° NW
Do, 18.10. 2:00 4 1 11 340° N
Mi, 17.10. 20:00 4 1 14 30° NO
Mi, 17.10. 14:00 7 2 11 320° NW
Ortszeit Stärke Spitze Richtung
km/h Bft. km/h Grad Sektor
Fr, 19.10. 8:30 7 2 14 350° N
Fr, 19.10. 8:20 7 2 - 350° N
Fr, 19.10. 8:10 7 2 - 360° N
Fr, 19.10. 8:00 9 2 13 350° N
Fr, 19.10. 7:50 9 2 - 350° N
Fr, 19.10. 7:40 9 2 - 350° N
Fr, 19.10. 7:30 7 2 14 360° N
Fr, 19.10. 7:00 7 2 14 350° N
Fr, 19.10. 6:30 7 2 14 340° N
Fr, 19.10. 6:00 7 2 14 350° N
Fr, 19.10. 5:30 9 2 17 350° N
Ortszeit Untergrenze Bedeckung Gattung
total tief tief mittel hoch
Fr, 19.10. 8:00 1800 m 3/8 1/8 - - -
Fr, 19.10. 2:00 - 0/8 0/8 - - -
Do, 18.10. 20:00 - 0/8 0/8 - - -
Do, 18.10. 14:00 10500 m 2/8 0/8 - - -
Do, 18.10. 8:00 6600 m 7/8 5/8 - - -
Do, 18.10. 2:00 7800 m 8/8 0/8 - - -
Mi, 17.10. 20:00 6300 m 8/8 8/8 - - -
Mi, 17.10. 14:00 8100 m 8/8 0/8 - - -
Ortszeit Bedeckungsgrad in Achtel und Wolkenuntergrenze
Fr, 19.10. 8:30 2(9000m)
Fr, 19.10. 8:20 2(9000m)
Fr, 19.10. 8:10 3(9000m)
Fr, 19.10. 8:00 1(1800m) 3(9000m)
Fr, 19.10. 7:50 1(1800m) 3(9000m)
Fr, 19.10. 7:40 1(1800m)
Fr, 19.10. 7:30 1(1800m)
Fr, 19.10. 7:00 keine Wolken
Fr, 19.10. 6:30 keine Wolken
Fr, 19.10. 6:00 keine Wolken
Fr, 19.10. 5:30 keine Wolken
Ortszeit Luftdruck NN (hPa) Tendenz (hPa in 3 Std.)
Fr, 19.10. 8:00 1023 + 0,8
Fr, 19.10. 2:00 1022 0,0
Do, 18.10. 20:00 1021 + 1,4
Do, 18.10. 14:00 1020 - 0,9
Do, 18.10. 8:00 1020 + 0,9
Do, 18.10. 2:00 1019 0,0
Mi, 17.10. 20:00 1018 + 0,6
Mi, 17.10. 14:00 1019 - 0,9
Ortszeit Luftdruck NN (hPa) Tendenz (hPa in 3 Std.)
Fr, 19.10. 8:30 1023 + 0,9
Fr, 19.10. 8:20 1023 keine Meldung
Fr, 19.10. 8:10 1023 keine Meldung
Fr, 19.10. 8:00 1023 + 0,8
Fr, 19.10. 7:50 1023 keine Meldung
Fr, 19.10. 7:40 1023 keine Meldung
Fr, 19.10. 7:30 1023 + 0,5
Fr, 19.10. 7:00 1023 + 0,5
Fr, 19.10. 6:30 1023 + 0,2
Fr, 19.10. 6:00 1022 0,0
Fr, 19.10. 5:30 1022 - 0,3
Ortszeit Schneehöhe (cm)
Fr, 19.10. 8:00 0
Fr, 19.10. 2:00 0
Do, 18.10. 20:00 0
Do, 18.10. 14:00 0
Do, 18.10. 8:00 0
Do, 18.10. 2:00 0
Mi, 17.10. 20:00 0
Mi, 17.10. 14:00 0
Ortszeit Schneehöhe (cm)
Fr, 19.10. 8:30 0
Fr, 19.10. 8:20 0
Fr, 19.10. 8:10 0
Fr, 19.10. 8:00 0
Fr, 19.10. 7:50 0
Fr, 19.10. 7:40 0
Fr, 19.10. 7:30 0
Fr, 19.10. 7:00 0
Fr, 19.10. 6:30 0
Fr, 19.10. 6:00 0
Fr, 19.10. 5:30 0
Link zu dieser Seite / Seite empfehlen

Das Wetter in ...